createdAt,value
2019-02-26T00:01:08.266Z,100829.59
2019-02-26T00:03:44.008Z,100833.38
2019-02-26T00:06:20.673Z,100832.06
2019-02-26T00:09:00.800Z,100829.41
2019-02-26T00:11:36.313Z,100825.05
2019-02-26T00:14:15.526Z,100821.50
2019-02-26T00:16:51.015Z,100825.94
2019-02-26T00:19:26.923Z,100815.34
2019-02-26T00:22:02.781Z,100809.06
2019-02-26T00:24:39.809Z,100814.27
2019-02-26T00:27:16.232Z,100810.20
2019-02-26T00:29:53.132Z,100800.94
2019-02-26T00:32:30.271Z,100792.86
2019-02-26T00:35:07.065Z,100796.21
2019-02-26T00:37:44.020Z,100782.31
2019-02-26T00:40:20.392Z,100779.96
2019-02-26T00:42:57.542Z,100777.97
2019-02-26T00:45:34.565Z,100766.28
2019-02-26T00:48:11.454Z,100762.03
2019-02-26T00:50:47.200Z,100765.14
2019-02-26T00:53:23.576Z,100759.03
2019-02-26T00:56:01.050Z,100762.40
2019-02-26T00:58:39.305Z,100741.52
2019-02-26T01:01:17.741Z,100769.73
2019-02-26T01:03:53.543Z,100746.31
2019-02-26T01:06:31.052Z,100739.12
2019-02-26T01:09:10.679Z,100762.04
2019-02-26T01:11:47.521Z,100753.59
2019-02-26T01:14:24.694Z,100743.41
2019-02-26T01:17:01.097Z,100745.53
2019-02-26T01:19:38.674Z,100749.50
2019-02-26T01:22:14.658Z,100755.23
2019-02-26T01:24:51.965Z,100745.60
2019-02-26T01:27:28.573Z,100739.94
2019-02-26T01:30:06.950Z,100743.91
2019-02-26T01:32:42.779Z,100733.86
2019-02-26T01:35:18.632Z,100747.28
2019-02-26T01:37:55.863Z,100728.27
2019-02-26T01:40:31.981Z,100736.83
2019-02-26T01:43:07.838Z,100720.22
2019-02-26T01:45:45.743Z,100718.17
2019-02-26T01:48:21.276Z,100713.30
2019-02-26T01:50:59.043Z,100713.91
2019-02-26T01:53:34.629Z,100698.37
2019-02-26T01:56:10.493Z,100702.06
2019-02-26T01:58:46.228Z,100700.41
2019-02-26T02:01:23.862Z,100697.77
2019-02-26T02:03:59.589Z,100691.25
2019-02-26T02:06:36.936Z,100697.98
2019-02-26T02:09:13.992Z,100702.45
2019-02-26T02:11:50.633Z,100698.94
2019-02-26T02:14:26.479Z,100701.16
2019-02-26T02:17:03.610Z,100695.47
2019-02-26T02:19:39.721Z,100695.58
2019-02-26T02:22:16.836Z,100690.31
2019-02-26T02:24:55.677Z,100677.54
2019-02-26T02:27:33.256Z,100675.35
2019-02-26T02:30:18.575Z,100663.01
2019-02-26T02:32:52.330Z,100674.03
2019-02-26T02:35:29.294Z,100677.83
2019-02-26T02:38:05.153Z,100662.15
2019-02-26T02:40:43.180Z,100666.08
2019-02-26T02:43:23.006Z,100666.95
2019-02-26T02:45:59.040Z,100670.02
2019-02-26T02:48:34.695Z,100659.42
2019-02-26T02:51:13.489Z,100646.69
2019-02-26T02:53:50.497Z,100645.83
2019-02-26T02:56:25.753Z,100657.21
2019-02-26T02:59:03.419Z,100638.67
2019-02-26T03:01:39.197Z,100646.11
2019-02-26T03:04:19.651Z,100637.70
2019-02-26T03:06:53.730Z,100652.12
2019-02-26T03:09:31.695Z,100630.31
2019-02-26T03:12:08.150Z,100634.60
2019-02-26T03:14:44.506Z,100623.89
2019-02-26T03:17:22.745Z,100643.73
2019-02-26T03:20:02.714Z,100636.02
2019-02-26T03:22:39.704Z,100627.10
2019-02-26T03:25:20.521Z,100633.61
2019-02-26T03:27:54.738Z,100621.06
2019-02-26T03:30:33.909Z,100620.91
2019-02-26T03:33:08.087Z,100612.80
2019-02-26T03:35:43.849Z,100609.64
2019-02-26T03:38:20.727Z,100609.17
2019-02-26T03:40:59.051Z,100616.78
2019-02-26T03:43:37.042Z,100608.36
2019-02-26T03:46:12.579Z,100598.97
2019-02-26T03:48:48.420Z,100601.97
2019-02-26T03:51:24.286Z,100587.38
2019-02-26T03:54:00.125Z,100602.90
2019-02-26T03:56:36.097Z,100596.31
2019-02-26T03:59:11.940Z,100602.90
2019-02-26T04:01:47.799Z,100573.73
2019-02-26T04:04:25.642Z,100613.50
2019-02-26T04:07:04.303Z,100575.80
2019-02-26T04:09:44.043Z,100583.72
2019-02-26T04:12:18.442Z,100573.11
2019-02-26T04:14:54.536Z,100591.08
2019-02-26T04:17:31.463Z,100601.60
2019-02-26T04:20:09.980Z,100584.76
2019-02-26T04:22:50.025Z,100582.58
2019-02-26T04:25:36.446Z,100593.10
2019-02-26T04:28:15.433Z,100574.03
2019-02-26T04:31:02.577Z,100569.66
2019-02-26T04:33:59.546Z,100564.23
2019-02-26T04:36:50.337Z,100580.15
2019-02-26T04:39:47.303Z,100568.05
2019-02-26T04:42:38.380Z,100568.44
2019-02-26T04:45:32.852Z,100575.93
2019-02-26T04:48:19.523Z,100569.26
2019-02-26T04:50:54.790Z,100565.40
2019-02-26T04:53:33.870Z,100562.67
2019-02-26T04:56:14.405Z,100548.16
2019-02-26T04:58:47.801Z,100544.70
2019-02-26T05:01:23.730Z,100499.66
2019-02-26T05:03:59.799Z,100512.66
2019-02-26T05:06:35.638Z,100523.25
2019-02-26T05:09:11.506Z,100506.27
2019-02-26T05:11:47.360Z,100520.58
2019-02-26T05:14:23.688Z,100521.98
2019-02-26T05:16:59.469Z,100529.70
2019-02-26T05:19:36.535Z,100516.84
2019-02-26T05:22:12.816Z,100524.09
2019-02-26T05:24:50.376Z,100527.22
2019-02-26T05:27:26.272Z,100527.77
2019-02-26T05:30:02.461Z,100539.81
2019-02-26T05:32:38.385Z,100541.59
2019-02-26T05:35:15.360Z,100535.33
2019-02-26T05:37:51.736Z,100554.38
2019-02-26T05:40:27.583Z,100574.77
2019-02-26T05:43:04.670Z,100587.19
2019-02-26T05:45:41.039Z,100605.46
2019-02-26T05:48:20.156Z,100595.17
2019-02-26T05:50:54.486Z,100607.20
2019-02-26T05:53:30.195Z,100612.53
2019-02-26T05:56:06.088Z,100609.53
2019-02-26T05:58:44.144Z,100601.19
2019-02-26T06:01:21.873Z,100619.87
2019-02-26T06:03:57.025Z,100617.89
2019-02-26T06:06:32.776Z,100617.66
2019-02-26T06:09:08.636Z,100612.17
2019-02-26T06:11:49.424Z,100622.19
2019-02-26T06:14:24.647Z,100623.59
2019-02-26T06:17:01.729Z,100623.52
2019-02-26T06:19:49.137Z,100633.72
2019-02-26T06:22:27.200Z,100635.80
2019-02-26T06:25:07.092Z,100640.31
2019-02-26T06:27:40.033Z,100626.13
2019-02-26T06:30:15.860Z,100643.47
2019-02-26T06:32:51.625Z,100637.73
2019-02-26T06:35:27.404Z,100654.92
2019-02-26T06:38:04.604Z,100645.53
2019-02-26T06:40:41.988Z,100639.42
2019-02-26T06:43:18.580Z,100635.41
2019-02-26T06:45:54.326Z,100640.09
2019-02-26T06:48:32.231Z,100637.66
2019-02-26T06:51:07.695Z,100634.90
2019-02-26T06:53:47.085Z,100635.64
2019-02-26T06:56:21.060Z,100642.58
2019-02-26T06:58:58.412Z,100638.25
2019-02-26T07:01:35.263Z,100628.47
2019-02-26T07:04:12.901Z,100635.36
2019-02-26T07:06:48.884Z,100644.91
2019-02-26T07:09:24.690Z,100641.12
2019-02-26T07:12:00.474Z,100651.86
2019-02-26T07:14:36.206Z,100661.72
2019-02-26T07:17:11.961Z,100665.48
2019-02-26T07:19:47.810Z,100661.86
2019-02-26T07:22:23.602Z,100658.74
2019-02-26T07:24:59.448Z,100665.08
2019-02-26T07:27:35.983Z,100667.63
2019-02-26T07:30:13.087Z,100680.26
2019-02-26T07:32:48.886Z,100683.41
2019-02-26T07:35:24.676Z,100669.34
2019-02-26T07:38:01.327Z,100659.78
2019-02-26T07:40:40.369Z,100662.00
2019-02-26T07:43:17.954Z,100666.91
2019-02-26T07:45:53.112Z,100662.86
2019-02-26T07:48:31.258Z,100655.78
2019-02-26T07:51:06.972Z,100662.97
2019-02-26T07:53:47.986Z,100664.19
2019-02-26T07:56:21.172Z,100663.58
2019-02-26T07:59:01.282Z,100664.16
2019-02-26T08:01:37.475Z,100682.70
2019-02-26T08:04:13.596Z,100674.71
2019-02-26T08:06:52.367Z,100683.98
2019-02-26T08:09:27.896Z,100692.43
2019-02-26T08:12:04.343Z,100701.05
2019-02-26T08:14:42.924Z,100696.01
2019-02-26T08:17:18.933Z,100700.59
2019-02-26T08:19:54.793Z,100686.16
2019-02-26T08:22:32.358Z,100676.89
2019-02-26T08:25:09.473Z,100692.78
2019-02-26T08:27:45.313Z,100691.37
2019-02-26T08:30:23.482Z,100688.54
2019-02-26T08:32:59.773Z,100680.81
2019-02-26T08:35:36.361Z,100691.45
2019-02-26T08:38:12.220Z,100703.03
2019-02-26T08:40:48.078Z,100697.23
2019-02-26T08:43:23.921Z,100699.56
2019-02-26T08:45:59.782Z,100698.80
2019-02-26T08:48:35.638Z,100709.19
2019-02-26T08:51:14.322Z,100706.86
2019-02-26T08:53:49.501Z,100701.13
2019-02-26T08:56:28.308Z,100712.34
2019-02-26T08:59:04.056Z,100706.07
2019-02-26T09:01:39.914Z,100702.06
2019-02-26T09:04:17.479Z,100709.05
2019-02-26T09:06:54.705Z,100707.25
2019-02-26T09:09:32.826Z,100709.40
2019-02-26T09:12:08.859Z,100714.16
2019-02-26T09:14:47.062Z,100721.86
2019-02-26T09:17:25.500Z,100728.81
2019-02-26T09:20:09.473Z,100715.27
2019-02-26T09:22:37.499Z,100714.45
2019-02-26T09:25:14.242Z,100711.16
2019-02-26T09:27:50.033Z,100706.20
2019-02-26T09:30:28.179Z,100719.28
2019-02-26T09:33:05.852Z,100711.33
2019-02-26T09:35:41.890Z,100704.77
2019-02-26T09:38:20.083Z,100724.69
2019-02-26T09:40:57.114Z,100722.86
2019-02-26T09:43:33.043Z,100721.07
2019-02-26T09:46:12.345Z,100741.66
2019-02-26T09:48:46.391Z,100737.43
2019-02-26T09:51:22.234Z,100741.83
2019-02-26T09:53:58.983Z,100727.52
2019-02-26T09:56:34.975Z,100729.33
2019-02-26T09:59:13.009Z,100731.72
2019-02-26T10:01:48.724Z,100726.41
2019-02-26T10:04:26.400Z,100726.45
2019-02-26T10:07:04.070Z,100722.91
2019-02-26T10:09:40.743Z,100721.93
2019-02-26T10:12:17.976Z,100720.66
2019-02-26T10:14:54.661Z,100709.70
2019-02-26T10:17:33.325Z,100714.66
2019-02-26T10:20:11.794Z,100716.91
2019-02-26T10:22:47.639Z,100699.75
2019-02-26T10:25:26.431Z,100709.11
2019-02-26T10:28:06.089Z,100706.16
2019-02-26T10:30:41.685Z,100706.85
2019-02-26T10:33:18.216Z,100688.47
2019-02-26T10:35:55.008Z,100682.23
2019-02-26T10:38:33.201Z,100678.02
2019-02-26T10:41:08.445Z,100682.98
2019-02-26T10:43:44.504Z,100683.67
2019-02-26T10:46:20.371Z,100662.30
2019-02-26T10:48:56.223Z,100675.41
2019-02-26T10:51:32.065Z,100667.78
2019-02-26T10:54:09.628Z,100667.39
2019-02-26T10:56:45.363Z,100661.32
2019-02-26T10:59:23.513Z,100662.60
2019-02-26T11:02:00.749Z,100655.28
2019-02-26T11:04:41.039Z,100653.39
2019-02-26T11:07:14.264Z,100657.24
2019-02-26T11:09:53.596Z,100653.57
2019-02-26T11:12:33.357Z,100660.50
2019-02-26T11:15:09.908Z,100656.98
2019-02-26T11:17:47.855Z,100642.94
2019-02-26T11:20:27.831Z,100637.50
2019-02-26T11:23:05.477Z,100626.91
2019-02-26T11:25:39.682Z,100636.54
2019-02-26T11:28:15.538Z,100629.14
2019-02-26T11:30:54.023Z,100615.52
2019-02-26T11:33:28.884Z,100622.69
2019-02-26T11:36:05.512Z,100631.80
2019-02-26T11:38:44.383Z,100603.57
2019-02-26T11:41:19.994Z,100623.08
2019-02-26T11:43:55.776Z,100611.44
2019-02-26T11:46:34.339Z,100607.89
2019-02-26T11:49:09.869Z,100608.05
2019-02-26T11:51:46.614Z,100618.94
2019-02-26T11:54:22.460Z,100603.61
2019-02-26T11:56:58.325Z,100607.31
2019-02-26T11:59:35.769Z,100598.77
2019-02-26T12:02:11.669Z,100604.22
2019-02-26T12:04:47.511Z,100609.78
2019-02-26T12:07:25.606Z,100604.99
2019-02-26T12:10:07.184Z,100607.41
2019-02-26T12:12:39.303Z,100610.45
2019-02-26T12:15:17.178Z,100616.19
2019-02-26T12:17:54.148Z,100601.89
2019-02-26T12:20:31.556Z,100596.83
2019-02-26T12:23:07.975Z,100589.84
2019-02-26T12:25:44.497Z,100600.95
2019-02-26T12:28:20.351Z,100582.28
2019-02-26T12:30:58.396Z,100601.00
2019-02-26T12:33:33.792Z,100590.79
2019-02-26T12:38:50.349Z,100593.70
2019-02-26T12:41:26.117Z,100592.98
2019-02-26T12:44:05.777Z,100582.95
2019-02-26T12:46:40.427Z,100589.37
2019-02-26T12:49:18.432Z,100573.09
2019-02-26T12:51:56.677Z,100584.14
2019-02-26T12:54:33.489Z,100588.66
2019-02-26T12:57:09.075Z,100581.62
2019-02-26T12:59:45.138Z,100585.61
2019-02-26T13:02:24.601Z,100581.02
2019-02-26T13:04:58.475Z,100566.53
2019-02-26T13:07:34.335Z,100575.17
2019-02-26T13:10:18.584Z,100567.92
2019-02-26T13:12:59.309Z,100570.30
2019-02-26T13:15:31.922Z,100570.38
2019-02-26T13:18:07.791Z,100592.84
2019-02-26T13:20:43.575Z,100587.00
2019-02-26T13:23:21.607Z,100578.97
2019-02-26T13:25:57.401Z,100582.48
2019-02-26T13:28:33.235Z,100574.69
2019-02-26T13:31:13.527Z,100583.45
2019-02-26T13:33:46.569Z,100586.77
2019-02-26T13:36:22.412Z,100581.39
2019-02-26T13:38:58.410Z,100587.77
2019-02-26T13:41:38.848Z,100592.70
2019-02-26T13:44:11.849Z,100595.08
2019-02-26T13:46:47.646Z,100580.09
2019-02-26T13:49:23.766Z,100578.56
2019-02-26T13:51:59.533Z,100580.72
2019-02-26T13:54:35.376Z,100578.16
2019-02-26T13:57:11.194Z,100581.25
2019-02-26T13:59:47.042Z,100575.02
2019-02-26T14:02:22.930Z,100578.23
2019-02-26T14:04:58.679Z,100583.23
2019-02-26T14:07:34.868Z,100577.70
2019-02-26T14:10:13.734Z,100578.71
2019-02-26T14:12:49.628Z,100582.17
2019-02-26T14:15:31.294Z,100593.50
2019-02-26T14:18:07.040Z,100579.66
2019-02-26T14:20:43.049Z,100593.88
2019-02-26T14:23:18.802Z,100578.00
2019-02-26T14:25:54.618Z,100579.24
2019-02-26T14:28:30.433Z,100574.48
2019-02-26T14:31:06.209Z,100575.55
2019-02-26T14:33:43.295Z,100573.54
2019-02-26T14:36:19.105Z,100568.69
2019-02-26T14:38:54.889Z,100573.27
2019-02-26T14:41:30.634Z,100570.25
2019-02-26T14:44:06.464Z,100569.81
2019-02-26T14:46:42.211Z,100575.02
2019-02-26T14:49:18.395Z,100562.24
2019-02-26T14:51:54.144Z,100564.64
2019-02-26T14:54:29.888Z,100569.72
2019-02-26T14:57:05.837Z,100560.62
2019-02-26T14:59:41.589Z,100557.30
2019-02-26T15:02:17.704Z,100560.77
2019-02-26T15:04:53.500Z,100568.66
2019-02-26T15:07:30.597Z,100573.73
2019-02-26T15:10:09.120Z,100576.45
2019-02-26T15:12:44.885Z,100574.12
2019-02-26T15:15:20.805Z,100577.98
2019-02-26T15:17:56.562Z,100580.31
2019-02-26T15:20:32.368Z,100588.44
2019-02-26T15:23:08.441Z,100591.62
2019-02-26T15:25:44.214Z,100601.13
2019-02-26T15:28:20.046Z,100595.16
2019-02-26T15:30:55.898Z,100602.47
2019-02-26T15:33:31.758Z,100610.88
2019-02-26T15:36:07.491Z,100613.77
2019-02-26T15:38:43.359Z,100624.02
2019-02-26T15:41:19.124Z,100615.15
2019-02-26T15:43:56.523Z,100620.59
2019-02-26T15:46:32.865Z,100614.70
2019-02-26T15:49:08.723Z,100614.13
2019-02-26T15:51:44.458Z,100625.34
2019-02-26T15:54:20.323Z,100619.69
2019-02-26T15:56:57.651Z,100621.72
2019-02-26T15:59:35.615Z,100626.02
2019-02-26T16:02:11.165Z,100627.18
2019-02-26T16:04:47.429Z,100625.59
2019-02-26T16:07:23.286Z,100629.97
2019-02-26T16:09:59.122Z,100624.45
2019-02-26T16:12:34.871Z,100629.03
2019-02-26T16:15:15.499Z,100630.06
2019-02-26T16:17:51.300Z,100625.47
2019-02-26T16:20:27.146Z,100628.30
2019-02-26T16:23:03.019Z,100630.65
2019-02-26T16:25:38.958Z,100625.00
2019-02-26T16:28:15.018Z,100623.80
2019-02-26T16:30:50.878Z,100627.56
2019-02-26T16:33:27.086Z,100623.48
2019-02-26T16:36:03.357Z,100621.50
2019-02-26T16:38:39.452Z,100641.17
2019-02-26T16:41:16.232Z,100648.00
2019-02-26T16:43:52.435Z,100644.73
2019-02-26T16:46:28.279Z,100644.37
2019-02-26T16:49:04.031Z,100649.06
2019-02-26T16:51:39.871Z,100648.62
2019-02-26T16:54:15.633Z,100650.11
2019-02-26T16:56:54.328Z,100652.80
2019-02-26T16:59:28.892Z,100650.30
2019-02-26T17:02:04.959Z,100657.05
2019-02-26T17:04:58.346Z,100657.80
2019-02-26T17:07:34.387Z,100663.16
2019-02-26T17:10:18.184Z,100667.53
2019-02-26T17:12:55.548Z,100662.58
2019-02-26T17:15:33.373Z,100668.84
2019-02-26T17:18:10.355Z,100667.36
2019-02-26T17:20:46.107Z,100671.95
2019-02-26T17:23:23.371Z,100665.07
2019-02-26T17:26:00.620Z,100670.13
2019-02-26T17:28:36.950Z,100667.05
2019-02-26T17:31:12.752Z,100679.47
2019-02-26T17:33:48.528Z,100677.29
2019-02-26T17:36:25.341Z,100678.86
2019-02-26T17:39:01.114Z,100677.61
2019-02-26T17:41:38.431Z,100681.23
2019-02-26T17:44:14.508Z,100675.75
2019-02-26T17:46:50.260Z,100680.19
2019-02-26T17:49:26.019Z,100679.39
2019-02-26T17:52:01.809Z,100674.27
2019-02-26T17:54:37.681Z,100682.61
2019-02-26T17:57:13.529Z,100683.94
2019-02-26T17:59:49.285Z,100683.18
2019-02-26T18:02:27.368Z,100685.40
2019-02-26T18:05:02.752Z,100693.95
2019-02-26T18:07:39.033Z,100702.31
2019-02-26T18:10:16.887Z,100698.73
2019-02-26T18:12:54.005Z,100702.25
2019-02-26T18:15:29.940Z,100696.95
2019-02-26T18:18:05.858Z,100701.78
2019-02-26T18:20:41.637Z,100704.50
2019-02-26T18:23:17.355Z,100705.33
2019-02-26T18:25:53.179Z,100711.02
2019-02-26T18:28:28.996Z,100717.14
2019-02-26T18:31:04.794Z,100713.62
2019-02-26T18:33:40.606Z,100707.87
2019-02-26T18:36:17.467Z,100710.91
2019-02-26T18:39:10.812Z,100726.88
2019-02-26T18:41:59.144Z,100718.93
2019-02-26T18:44:35.823Z,100726.08
2019-02-26T18:47:11.887Z,100729.22
2019-02-26T18:49:55.549Z,100731.21
2019-02-26T18:52:31.119Z,100728.73
2019-02-26T18:55:12.695Z,100737.36
2019-02-26T18:57:48.716Z,100734.08
2019-02-26T19:00:29.593Z,100735.07
2019-02-26T19:03:08.716Z,100724.25
2019-02-26T19:05:43.847Z,100724.25
2019-02-26T19:08:19.696Z,100739.16
2019-02-26T19:10:55.553Z,100738.89
2019-02-26T19:13:33.275Z,100733.33
2019-02-26T19:16:08.905Z,100750.55
2019-02-26T19:18:44.863Z,100743.30
2019-02-26T19:21:22.297Z,100749.05
2019-02-26T19:23:58.414Z,100748.77
2019-02-26T19:26:34.263Z,100747.38
2019-02-26T19:29:10.218Z,100752.42
2019-02-26T19:31:47.200Z,100754.30
2019-02-26T19:34:23.053Z,100742.05
2019-02-26T19:36:58.906Z,100752.26
2019-02-26T19:39:34.763Z,100751.11
2019-02-26T19:42:10.576Z,100743.59
2019-02-26T19:44:46.370Z,100742.32
2019-02-26T19:47:22.794Z,100742.06
2019-02-26T19:49:59.205Z,100747.30
2019-02-26T19:52:35.061Z,100758.41
2019-02-26T19:55:16.643Z,100761.34
2019-02-26T19:57:52.510Z,100762.30
2019-02-26T20:00:28.350Z,100754.54
2019-02-26T20:03:05.482Z,100746.23
2019-02-26T20:05:45.931Z,100751.11
2019-02-26T20:08:19.608Z,100747.64
2019-02-26T20:10:55.466Z,100754.75
2019-02-26T20:13:31.736Z,100751.31
2019-02-26T20:16:08.901Z,100743.38
2019-02-26T20:18:44.753Z,100747.94
2019-02-26T20:21:20.606Z,100738.29
2019-02-26T20:23:56.471Z,100750.98
2019-02-26T20:26:32.312Z,100742.74
2019-02-26T20:29:08.402Z,100747.59
2019-02-26T20:31:44.345Z,100748.14
2019-02-26T20:34:20.203Z,100754.84
2019-02-26T20:36:56.041Z,100757.41
2019-02-26T20:39:31.899Z,100756.61
2019-02-26T20:42:07.751Z,100762.29
2019-02-26T20:44:45.445Z,100758.33
2019-02-26T20:47:21.206Z,100767.58
2019-02-26T20:49:57.050Z,100762.37
2019-02-26T20:52:33.429Z,100765.10
2019-02-26T20:55:11.784Z,100760.78
2019-02-26T20:57:47.686Z,100763.34
2019-02-26T21:00:25.242Z,100764.75
2019-02-26T21:03:01.029Z,100766.47
2019-02-26T21:05:37.295Z,100766.15
2019-02-26T21:08:13.168Z,100771.99
2019-02-26T21:10:50.848Z,100763.15
2019-02-26T21:13:26.597Z,100765.03
2019-02-26T21:16:02.458Z,100769.94
2019-02-26T21:18:39.383Z,100773.49
2019-02-26T21:21:15.293Z,100765.70
2019-02-26T21:23:52.277Z,100773.98
2019-02-26T21:26:29.252Z,100777.58
2019-02-26T21:29:06.272Z,100775.94
2019-02-26T21:31:42.404Z,100773.70
2019-02-26T21:34:18.248Z,100776.82
2019-02-26T21:36:54.102Z,100770.30
2019-02-26T21:39:29.956Z,100777.94
2019-02-26T21:42:05.818Z,100777.43
2019-02-26T21:44:42.372Z,100774.06
2019-02-26T21:50:29.229Z,100786.12
2019-02-26T21:53:05.917Z,100792.26
2019-02-26T21:55:44.293Z,100795.50
2019-02-26T21:58:19.574Z,100799.48
2019-02-26T22:01:30.367Z,100800.80
2019-02-26T22:04:16.718Z,100797.83
2019-02-26T22:06:52.453Z,100793.50
2019-02-26T22:09:30.155Z,100794.37
2019-02-26T22:12:05.807Z,100799.23
2019-02-26T22:14:41.661Z,100795.30
2019-02-26T22:17:17.513Z,100801.05
2019-02-26T22:19:53.376Z,100801.12
2019-02-26T22:22:29.267Z,100805.92
2019-02-26T22:25:09.658Z,100806.47
2019-02-26T22:27:43.606Z,100810.43
2019-02-26T22:30:21.965Z,100812.22
2019-02-26T22:32:57.567Z,100811.84
2019-02-26T22:35:33.417Z,100811.92
2019-02-26T22:38:09.258Z,100808.42
2019-02-26T22:40:45.121Z,100810.30
2019-02-26T22:43:20.977Z,100815.19
2019-02-26T22:46:00.750Z,100809.57
2019-02-26T22:48:34.338Z,100806.09
2019-02-26T22:51:10.181Z,100810.11
2019-02-26T22:53:46.031Z,100813.16
2019-02-26T22:56:24.240Z,100810.20
2019-02-26T22:58:59.522Z,100815.56
2019-02-26T23:01:40.038Z,100815.14
2019-02-26T23:04:19.678Z,100820.95
2019-02-26T23:06:54.421Z,100822.41
2019-02-26T23:09:30.776Z,100829.02
2019-02-26T23:12:07.445Z,100826.83
2019-02-26T23:14:43.506Z,100828.62
2019-02-26T23:17:19.672Z,100826.89
2019-02-26T23:19:56.341Z,100830.47
2019-02-26T23:22:32.190Z,100831.34
2019-02-26T23:25:09.788Z,100834.56
2019-02-26T23:27:48.687Z,100825.88
2019-02-26T23:30:24.911Z,100826.73
2019-02-26T23:33:02.242Z,100822.38
2019-02-26T23:35:38.539Z,100817.97
2019-02-26T23:38:14.298Z,100826.84
2019-02-26T23:40:50.153Z,100813.61
2019-02-26T23:43:25.993Z,100813.21
2019-02-26T23:46:01.851Z,100819.01
2019-02-26T23:48:40.756Z,100818.09
2019-02-26T23:51:20.100Z,100818.16
2019-02-26T23:53:53.709Z,100811.17
2019-02-26T23:56:29.563Z,100819.98
2019-02-26T23:59:05.411Z,100809.87
